sensor_id;sensor_type;location;lat;lon;timestamp;pressure;altitude;pressure_sealevel;temperature;humidity
14882;BME280;7533;51.278;12.588;2023-04-08T00:04:43;100513.53;;;23.22;54.99
14882;BME280;7533;51.278;12.588;2023-04-08T00:09:47;100519.81;;;23.22;54.92
14882;BME280;7533;51.278;12.588;2023-04-08T00:14:50;100514.31;;;23.24;55.01
14882;BME280;7533;51.278;12.588;2023-04-08T00:19:53;100514.53;;;23.21;54.92
14882;BME280;7533;51.278;12.588;2023-04-08T00:24:58;100517.34;;;23.19;55.24
14882;BME280;7533;51.278;12.588;2023-04-08T00:30:01;100506.53;;;23.19;55.10
14882;BME280;7533;51.278;12.588;2023-04-08T00:35:04;100511.19;;;23.17;55.09
14882;BME280;7533;51.278;12.588;2023-04-08T00:40:10;100521.97;;;23.17;55.17
14882;BME280;7533;51.278;12.588;2023-04-08T00:45:13;100509.69;;;23.13;55.16
14882;BME280;7533;51.278;12.588;2023-04-08T00:50:16;100506.22;;;23.11;55.48
14882;BME280;7533;51.278;12.588;2023-04-08T00:55:20;100511.00;;;23.08;55.54
14882;BME280;7533;51.278;12.588;2023-04-08T01:00:23;100510.34;;;23.04;55.70
14882;BME280;7533;51.278;12.588;2023-04-08T01:05:29;100507.25;;;22.98;55.69
14882;BME280;7533;51.278;12.588;2023-04-08T01:10:38;100506.91;;;22.89;55.92
14882;BME280;7533;51.278;12.588;2023-04-08T01:15:44;100516.19;;;22.85;56.08
14882;BME280;7533;51.278;12.588;2023-04-08T01:20:49;100517.50;;;22.80;56.40
14882;BME280;7533;51.278;12.588;2023-04-08T01:25:54;100514.38;;;22.73;56.51
14882;BME280;7533;51.278;12.588;2023-04-08T01:30:58;100523.66;;;22.69;56.61
14882;BME280;7533;51.278;12.588;2023-04-08T01:36:02;100517.84;;;22.62;56.82
14882;BME280;7533;51.278;12.588;2023-04-08T01:41:08;100515.56;;;22.56;56.91
14882;BME280;7533;51.278;12.588;2023-04-08T01:46:12;100516.84;;;22.51;57.41
14882;BME280;7533;51.278;12.588;2023-04-08T01:51:16;100507.38;;;22.45;57.38
14882;BME280;7533;51.278;12.588;2023-04-08T01:56:21;100511.25;;;22.41;57.51
14882;BME280;7533;51.278;12.588;2023-04-08T02:01:26;100506.16;;;22.36;57.71
14882;BME280;7533;51.278;12.588;2023-04-08T02:06:31;100511.00;;;22.31;57.87
14882;BME280;7533;51.278;12.588;2023-04-08T02:11:36;100513.03;;;22.28;58.15
14882;BME280;7533;51.278;12.588;2023-04-08T02:16:43;100513.28;;;22.25;58.26
14882;BME280;7533;51.278;12.588;2023-04-08T02:21:56;100514.56;;;22.19;58.45
14882;BME280;7533;51.278;12.588;2023-04-08T02:27:02;100514.88;;;22.14;58.54
14882;BME280;7533;51.278;12.588;2023-04-08T02:32:05;100518.66;;;22.12;58.78
14882;BME280;7533;51.278;12.588;2023-04-08T02:37:10;100509.00;;;22.08;58.98
14882;BME280;7533;51.278;12.588;2023-04-08T02:42:14;100513.84;;;22.03;59.03
14882;BME280;7533;51.278;12.588;2023-04-08T02:47:18;100521.25;;;21.99;59.06
14882;BME280;7533;51.278;12.588;2023-04-08T02:52:21;100526.00;;;21.96;59.32
14882;BME280;7533;51.278;12.588;2023-04-08T02:57:25;100525.47;;;21.90;59.43
14882;BME280;7533;51.278;12.588;2023-04-08T03:02:28;100525.75;;;21.86;59.51
14882;BME280;7533;51.278;12.588;2023-04-08T03:07:31;100521.47;;;21.83;59.65
14882;BME280;7533;51.278;12.588;2023-04-08T03:12:35;100527.16;;;21.79;59.75
14882;BME280;7533;51.278;12.588;2023-04-08T03:17:38;100530.03;;;21.76;59.82
14882;BME280;7533;51.278;12.588;2023-04-08T03:22:42;100539.19;;;21.73;59.97
14882;BME280;7533;51.278;12.588;2023-04-08T03:27:46;100541.97;;;21.72;60.11
14882;BME280;7533;51.278;12.588;2023-04-08T03:32:49;100546.81;;;21.67;60.10
14882;BME280;7533;51.278;12.588;2023-04-08T03:37:51;100549.69;;;21.63;60.52
14882;BME280;7533;51.278;12.588;2023-04-08T03:42:56;100549.81;;;21.62;60.29
14882;BME280;7533;51.278;12.588;2023-04-08T03:47:59;100550.00;;;21.59;60.37
14882;BME280;7533;51.278;12.588;2023-04-08T03:53:02;100545.69;;;21.56;60.56
14882;BME280;7533;51.278;12.588;2023-04-08T03:58:07;100547.59;;;21.54;60.70
14882;BME280;7533;51.278;12.588;2023-04-08T04:03:10;100546.84;;;21.52;60.98
14882;BME280;7533;51.278;12.588;2023-04-08T04:08:14;100556.94;;;21.49;60.88
14882;BME280;7533;51.278;12.588;2023-04-08T04:13:18;100564.28;;;21.47;60.91
14882;BME280;7533;51.278;12.588;2023-04-08T04:18:22;100558.22;;;21.43;61.27
14882;BME280;7533;51.278;12.588;2023-04-08T04:23:25;100564.66;;;21.41;61.35
14882;BME280;7533;51.278;12.588;2023-04-08T04:28:29;100565.66;;;21.39;61.52
14882;BME280;7533;51.278;12.588;2023-04-08T04:33:32;100564.84;;;21.37;61.49
14882;BME280;7533;51.278;12.588;2023-04-08T04:38:35;100568.63;;;21.35;61.67
14882;BME280;7533;51.278;12.588;2023-04-08T04:43:40;100582.19;;;21.33;61.91
14882;BME280;7533;51.278;12.588;2023-04-08T04:48:43;100586.03;;;21.29;62.03
14882;BME280;7533;51.278;12.588;2023-04-08T04:53:46;100575.34;;;21.28;61.91
14882;BME280;7533;51.278;12.588;2023-04-08T04:58:51;100586.28;;;21.25;62.07
14882;BME280;7533;51.278;12.588;2023-04-08T05:03:54;100594.47;;;21.23;62.31
14882;BME280;7533;51.278;12.588;2023-04-08T05:08:57;100598.13;;;21.22;62.31
14882;BME280;7533;51.278;12.588;2023-04-08T05:14:01;100599.06;;;21.21;62.41
14882;BME280;7533;51.278;12.588;2023-04-08T05:19:04;100601.00;;;21.19;62.66
14882;BME280;7533;51.278;12.588;2023-04-08T05:24:07;100614.69;;;21.16;62.55
14882;BME280;7533;51.278;12.588;2023-04-08T05:29:11;100608.41;;;21.16;62.64
14882;BME280;7533;51.278;12.588;2023-04-08T05:34:14;100616.69;;;21.12;62.83
14882;BME280;7533;51.278;12.588;2023-04-08T05:39:23;100610.53;;;21.10;62.96
14882;BME280;7533;51.278;12.588;2023-04-08T05:44:28;100613.13;;;21.12;62.91
14882;BME280;7533;51.278;12.588;2023-04-08T05:49:32;100615.94;;;21.10;63.06
14882;BME280;7533;51.278;12.588;2023-04-08T05:54:35;100625.16;;;21.06;63.15
14882;BME280;7533;51.278;12.588;2023-04-08T05:59:39;100623.31;;;21.07;63.02
14882;BME280;7533;51.278;12.588;2023-04-08T06:04:42;100629.66;;;21.06;63.25
14882;BME280;7533;51.278;12.588;2023-04-08T06:09:45;100651.38;;;21.03;63.43
14882;BME280;7533;51.278;12.588;2023-04-08T06:14:52;100640.50;;;21.04;63.56
14882;BME280;7533;51.278;12.588;2023-04-08T06:19:55;100652.22;;;21.03;63.41
14882;BME280;7533;51.278;12.588;2023-04-08T06:24:58;100659.53;;;21.01;63.58
14882;BME280;7533;51.278;12.588;2023-04-08T06:30:03;100657.63;;;21.03;63.89
14882;BME280;7533;51.278;12.588;2023-04-08T06:35:06;100663.97;;;21.02;63.66
14882;BME280;7533;51.278;12.588;2023-04-08T06:40:10;100674.81;;;21.01;64.04
14882;BME280;7533;51.278;12.588;2023-04-08T06:45:14;100681.94;;;21.02;63.93
14882;BME280;7533;51.278;12.588;2023-04-08T06:50:17;100694.69;;;20.98;64.04
14882;BME280;7533;51.278;12.588;2023-04-08T06:55:20;100689.31;;;20.98;64.07
14882;BME280;7533;51.278;12.588;2023-04-08T07:00:24;100682.09;;;20.99;64.12
14882;BME280;7533;51.278;12.588;2023-04-08T07:05:27;100692.22;;;20.95;63.60
14882;BME280;7533;51.278;12.588;2023-04-08T07:10:31;100698.47;;;18.53;57.09
14882;BME280;7533;51.278;12.588;2023-04-08T07:15:35;100711.59;;;16.86;58.93
14882;BME280;7533;51.278;12.588;2023-04-08T07:20:38;100709.44;;;19.17;56.88
14882;BME280;7533;51.278;12.588;2023-04-08T07:25:42;100715.69;;;20.00;55.45
14882;BME280;7533;51.278;12.588;2023-04-08T07:30:46;100711.19;;;20.32;55.47
14882;BME280;7533;51.278;12.588;2023-04-08T07:35:49;100718.00;;;20.53;55.48
14882;BME280;7533;51.278;12.588;2023-04-08T07:40:52;100714.63;;;20.66;55.54
14882;BME280;7533;51.278;12.588;2023-04-08T07:46:00;100716.75;;;20.75;55.86
14882;BME280;7533;51.278;12.588;2023-04-08T07:51:05;100721.69;;;20.82;55.77
14882;BME280;7533;51.278;12.588;2023-04-08T07:56:13;100731.03;;;20.91;56.04
14882;BME280;7533;51.278;12.588;2023-04-08T08:01:20;100731.50;;;20.98;55.95
14882;BME280;7533;51.278;12.588;2023-04-08T08:06:24;100725.97;;;21.01;56.13
14882;BME280;7533;51.278;12.588;2023-04-08T08:11:28;100728.38;;;21.05;56.35
14882;BME280;7533;51.278;12.588;2023-04-08T08:16:32;100730.41;;;21.16;56.55
14882;BME280;7533;51.278;12.588;2023-04-08T08:21:35;100748.03;;;21.22;56.56
14882;BME280;7533;51.278;12.588;2023-04-08T08:26:41;100742.72;;;21.20;56.81
14882;BME280;7533;51.278;12.588;2023-04-08T08:31:47;100741.75;;;21.21;56.90
14882;BME280;7533;51.278;12.588;2023-04-08T08:36:49;100755.03;;;21.24;57.09
14882;BME280;7533;51.278;12.588;2023-04-08T08:41:53;100748.44;;;21.30;57.14
14882;BME280;7533;51.278;12.588;2023-04-08T08:46:59;100758.94;;;21.34;57.15
14882;BME280;7533;51.278;12.588;2023-04-08T08:52:02;100753.56;;;21.34;57.31
14882;BME280;7533;51.278;12.588;2023-04-08T08:57:15;100769.44;;;21.39;57.28
14882;BME280;7533;51.278;12.588;2023-04-08T09:02:24;100771.06;;;21.42;57.31
14882;BME280;7533;51.278;12.588;2023-04-08T09:07:29;100775.41;;;21.44;57.22
14882;BME280;7533;51.278;12.588;2023-04-08T09:12:32;100780.59;;;21.47;57.46
14882;BME280;7533;51.278;12.588;2023-04-08T09:17:38;100776.53;;;21.54;57.30
14882;BME280;7533;51.278;12.588;2023-04-08T09:22:56;100779.94;;;21.58;57.08
14882;BME280;7533;51.278;12.588;2023-04-08T09:27:59;100793.00;;;21.64;57.28
14882;BME280;7533;51.278;12.588;2023-04-08T09:33:05;100793.00;;;21.64;56.96
14882;BME280;7533;51.278;12.588;2023-04-08T09:38:08;100793.88;;;21.64;57.11
14882;BME280;7533;51.278;12.588;2023-04-08T09:43:12;100804.66;;;21.64;57.31
14882;BME280;7533;51.278;12.588;2023-04-08T09:48:23;100804.53;;;21.66;57.17
14882;BME280;7533;51.278;12.588;2023-04-08T09:53:33;100799.75;;;21.71;57.27
14882;BME280;7533;51.278;12.588;2023-04-08T09:58:40;100802.16;;;21.76;57.34
14882;BME280;7533;51.278;12.588;2023-04-08T10:03:48;100813.91;;;21.75;57.52
14882;BME280;7533;51.278;12.588;2023-04-08T10:08:55;100810.72;;;21.82;57.34
14882;BME280;7533;51.278;12.588;2023-04-08T10:13:58;100818.44;;;21.74;57.46
14882;BME280;7533;51.278;12.588;2023-04-08T10:50:29;100843.50;;;21.60;58.20
14882;BME280;7533;51.278;12.588;2023-04-08T10:55:32;100834.66;;;21.44;58.47
14882;BME280;7533;51.278;12.588;2023-04-08T11:00:37;100832.34;;;21.52;58.50
14882;BME280;7533;51.278;12.588;2023-04-08T11:05:42;100830.63;;;21.65;58.33
14882;BME280;7533;51.278;12.588;2023-04-08T11:10:45;100834.59;;;21.74;58.14
14882;BME280;7533;51.278;12.588;2023-04-08T11:15:49;100830.94;;;21.75;58.30
14882;BME280;7533;51.278;12.588;2023-04-08T11:20:53;100823.91;;;21.87;58.13
14882;BME280;7533;51.278;12.588;2023-04-08T11:25:57;100826.22;;;21.93;58.06
14882;BME280;7533;51.278;12.588;2023-04-08T11:31:01;100835.56;;;21.87;59.39
14882;BME280;7533;51.278;12.588;2023-04-08T11:36:06;100832.00;;;21.87;58.79
14882;BME280;7533;51.278;12.588;2023-04-08T11:41:10;100824.59;;;21.90;58.21
14882;BME280;7533;51.278;12.588;2023-04-08T11:46:13;100832.69;;;21.90;57.94
14882;BME280;7533;51.278;12.588;2023-04-08T11:51:17;100835.84;;;21.97;58.18
14882;BME280;7533;51.278;12.588;2023-04-08T11:56:21;100827.38;;;22.03;58.10
14882;BME280;7533;51.278;12.588;2023-04-08T12:01:25;100827.00;;;22.09;58.74
14882;BME280;7533;51.278;12.588;2023-04-08T12:06:29;100826.13;;;22.37;58.07
14882;BME280;7533;51.278;12.588;2023-04-08T12:11:32;100827.66;;;22.41;57.61
14882;BME280;7533;51.278;12.588;2023-04-08T12:16:35;100837.47;;;22.42;57.03
14882;BME280;7533;51.278;12.588;2023-04-08T12:21:40;100839.13;;;22.45;56.86
14882;BME280;7533;51.278;12.588;2023-04-08T12:26:43;100837.59;;;22.41;56.42
14882;BME280;7533;51.278;12.588;2023-04-08T12:31:45;100841.34;;;22.38;56.86
14882;BME280;7533;51.278;12.588;2023-04-08T12:36:50;100838.75;;;22.37;56.44
14882;BME280;7533;51.278;12.588;2023-04-08T12:41:53;100837.88;;;22.36;56.63
14882;BME280;7533;51.278;12.588;2023-04-08T12:46:55;100835.19;;;22.36;57.16
14882;BME280;7533;51.278;12.588;2023-04-08T12:52:01;100831.91;;;22.31;56.70
14882;BME280;7533;51.278;12.588;2023-04-08T12:57:04;100828.81;;;22.37;56.00
14882;BME280;7533;51.278;12.588;2023-04-08T13:02:06;100837.19;;;22.33;56.00
14882;BME280;7533;51.278;12.588;2023-04-08T13:07:11;100831.72;;;22.34;55.96
14882;BME280;7533;51.278;12.588;2023-04-08T13:12:13;100836.25;;;22.34;55.63
14882;BME280;7533;51.278;12.588;2023-04-08T13:17:16;100834.22;;;22.37;55.62
14882;BME280;7533;51.278;12.588;2023-04-08T13:22:21;100834.09;;;22.39;55.49
14882;BME280;7533;51.278;12.588;2023-04-08T13:27:23;100829.78;;;22.36;55.47
14882;BME280;7533;51.278;12.588;2023-04-08T13:32:26;100829.69;;;22.38;55.33
14882;BME280;7533;51.278;12.588;2023-04-08T13:37:30;100833.06;;;22.41;55.51
14882;BME280;7533;51.278;12.588;2023-04-08T13:42:33;100828.53;;;22.42;55.61
14882;BME280;7533;51.278;12.588;2023-04-08T13:47:36;100833.81;;;22.43;55.65
14882;BME280;7533;51.278;12.588;2023-04-08T13:52:40;100830.06;;;22.46;55.77
14882;BME280;7533;51.278;12.588;2023-04-08T13:57:43;100833.63;;;22.47;55.86
14882;BME280;7533;51.278;12.588;2023-04-08T14:02:46;100833.81;;;22.43;55.75
14882;BME280;7533;51.278;12.588;2023-04-08T14:07:50;100842.97;;;22.41;56.01
14882;BME280;7533;51.278;12.588;2023-04-08T14:12:53;100841.44;;;22.37;56.09
14882;BME280;7533;51.278;12.588;2023-04-08T14:17:56;100847.81;;;22.36;56.15
14882;BME280;7533;51.278;12.588;2023-04-08T14:23:00;100845.28;;;22.33;56.35
14882;BME280;7533;51.278;12.588;2023-04-08T14:28:03;100849.75;;;22.34;56.44
14882;BME280;7533;51.278;12.588;2023-04-08T14:33:06;100845.22;;;22.34;56.19
14882;BME280;7533;51.278;12.588;2023-04-08T14:38:10;100853.09;;;22.37;56.23
14882;BME280;7533;51.278;12.588;2023-04-08T14:43:13;100847.19;;;22.59;56.02
14882;BME280;7533;51.278;12.588;2023-04-08T14:48:16;100854.13;;;22.63;56.01
14882;BME280;7533;51.278;12.588;2023-04-08T14:53:21;100848.09;;;22.73;55.84
14882;BME280;7533;51.278;12.588;2023-04-08T14:58:24;100853.09;;;22.93;55.65
14882;BME280;7533;51.278;12.588;2023-04-08T15:03:26;100857.63;;;22.78;55.98
14882;BME280;7533;51.278;12.588;2023-04-08T15:08:31;100851.94;;;22.83;55.88
14882;BME280;7533;51.278;12.588;2023-04-08T15:13:35;100857.91;;;22.88;55.93
14882;BME280;7533;51.278;12.588;2023-04-08T15:18:38;100851.34;;;22.92;55.90
14882;BME280;7533;51.278;12.588;2023-04-08T15:23:42;100859.75;;;22.87;56.04
14882;BME280;7533;51.278;12.588;2023-04-08T15:28:46;100861.94;;;22.95;56.00
14882;BME280;7533;51.278;12.588;2023-04-08T15:33:49;100868.97;;;22.98;55.96
14882;BME280;7533;51.278;12.588;2023-04-08T15:38:54;100861.44;;;23.03;55.95
14882;BME280;7533;51.278;12.588;2023-04-08T15:43:57;100873.22;;;23.02;55.89
14882;BME280;7533;51.278;12.588;2023-04-08T15:49:00;100890.78;;;22.94;56.13
14882;BME280;7533;51.278;12.588;2023-04-08T15:54:04;100893.72;;;23.04;55.85
14882;BME280;7533;51.278;12.588;2023-04-08T15:59:07;100890.94;;;23.06;54.73
14882;BME280;7533;51.278;12.588;2023-04-08T16:04:10;100898.72;;;23.10;54.06
14882;BME280;7533;51.278;12.588;2023-04-08T16:09:14;100905.34;;;22.92;53.20
14882;BME280;7533;51.278;12.588;2023-04-08T16:14:19;100905.47;;;22.90;52.79
14882;BME280;7533;51.278;12.588;2023-04-08T16:19:22;100917.13;;;22.91;52.42
14882;BME280;7533;51.278;12.588;2023-04-08T16:24:26;100912.16;;;22.83;52.38
14882;BME280;7533;51.278;12.588;2023-04-08T16:29:29;100925.03;;;22.80;51.94
14882;BME280;7533;51.278;12.588;2023-04-08T16:34:32;100922.69;;;22.88;51.69
14882;BME280;7533;51.278;12.588;2023-04-08T16:39:36;100930.22;;;22.97;51.40
14882;BME280;7533;51.278;12.588;2023-04-08T16:44:39;100937.25;;;22.85;50.99
14882;BME280;7533;51.278;12.588;2023-04-08T16:49:42;100941.41;;;22.91;50.57
14882;BME280;7533;51.278;12.588;2023-04-08T16:54:46;100957.22;;;22.97;50.82
14882;BME280;7533;51.278;12.588;2023-04-08T16:59:49;100962.31;;;23.02;50.44
14882;BME280;7533;51.278;12.588;2023-04-08T17:04:52;100955.31;;;23.12;49.17
14882;BME280;7533;51.278;12.588;2023-04-08T17:09:56;100958.13;;;23.10;50.03
14882;BME280;7533;51.278;12.588;2023-04-08T17:14:59;100958.25;;;22.94;51.19
14882;BME280;7533;51.278;12.588;2023-04-08T17:20:02;100956.09;;;23.14;51.12
14882;BME280;7533;51.278;12.588;2023-04-08T17:25:07;100974.06;;;22.86;51.87
14882;BME280;7533;51.278;12.588;2023-04-08T17:30:11;100988.06;;;22.93;52.19
14882;BME280;7533;51.278;12.588;2023-04-08T17:35:14;100992.88;;;22.74;52.50
14882;BME280;7533;51.278;12.588;2023-04-08T17:40:19;100998.19;;;22.75;52.78
14882;BME280;7533;51.278;12.588;2023-04-08T17:45:22;101002.41;;;22.65;53.03
14882;BME280;7533;51.278;12.588;2023-04-08T17:50:25;101002.03;;;22.57;53.60
14882;BME280;7533;51.278;12.588;2023-04-08T17:55:29;101021.00;;;22.55;53.75
14882;BME280;7533;51.278;12.588;2023-04-08T18:00:32;101015.91;;;22.65;52.36
14882;BME280;7533;51.278;12.588;2023-04-08T18:05:35;101028.25;;;22.69;53.06
14882;BME280;7533;51.278;12.588;2023-04-08T18:10:39;101027.19;;;22.71;53.09
14882;BME280;7533;51.278;12.588;2023-04-08T18:15:44;101037.91;;;22.73;53.05
14882;BME280;7533;51.278;12.588;2023-04-08T18:20:47;101050.03;;;22.80;53.12
14882;BME280;7533;51.278;12.588;2023-04-08T18:25:51;101051.22;;;22.90;53.32
14882;BME280;7533;51.278;12.588;2023-04-08T18:30:53;101049.00;;;22.97;53.34
14882;BME280;7533;51.278;12.588;2023-04-08T18:36:04;101058.25;;;22.93;53.53
14882;BME280;7533;51.278;12.588;2023-04-08T18:41:09;101060.66;;;22.98;53.72
14882;BME280;7533;51.278;12.588;2023-04-08T18:46:12;101055.44;;;22.94;53.75
14882;BME280;7533;51.278;12.588;2023-04-08T18:51:15;101059.69;;;22.99;53.77
14882;BME280;7533;51.278;12.588;2023-04-08T18:56:19;101065.44;;;22.78;54.44
14882;BME280;7533;51.278;12.588;2023-04-08T19:01:22;101066.13;;;22.82;54.46
14882;BME280;7533;51.278;12.588;2023-04-08T19:06:25;101064.50;;;22.79;54.44
14882;BME280;7533;51.278;12.588;2023-04-08T19:11:30;101066.81;;;22.85;54.49
14882;BME280;7533;51.278;12.588;2023-04-08T19:16:33;101069.25;;;22.90;54.34
14882;BME280;7533;51.278;12.588;2023-04-08T19:21:36;101067.84;;;22.83;54.59
14882;BME280;7533;51.278;12.588;2023-04-08T19:26:40;101062.84;;;22.77;54.67
14882;BME280;7533;51.278;12.588;2023-04-08T19:31:43;101069.03;;;22.79;54.64
14882;BME280;7533;51.278;12.588;2023-04-08T19:36:46;101065.09;;;22.84;54.52
14882;BME280;7533;51.278;12.588;2023-04-08T19:41:50;101058.25;;;22.79;54.69
14882;BME280;7533;51.278;12.588;2023-04-08T19:46:53;101062.66;;;22.80;54.87
14882;BME280;7533;51.278;12.588;2023-04-08T19:51:58;101066.34;;;22.93;54.23
14882;BME280;7533;51.278;12.588;2023-04-08T19:57:04;101069.41;;;22.87;54.17
14882;BME280;7533;51.278;12.588;2023-04-08T20:02:08;101076.75;;;22.85;54.33
14882;BME280;7533;51.278;12.588;2023-04-08T20:07:11;101078.56;;;22.84;54.31
14882;BME280;7533;51.278;12.588;2023-04-08T20:12:16;101079.19;;;23.18;53.76
14882;BME280;7533;51.278;12.588;2023-04-08T20:17:18;101091.81;;;23.03;53.94
14882;BME280;7533;51.278;12.588;2023-04-08T20:22:22;101092.66;;;22.89;54.34
14882;BME280;7533;51.278;12.588;2023-04-08T20:27:26;101094.41;;;22.90;54.04
14882;BME280;7533;51.278;12.588;2023-04-08T20:32:29;101100.03;;;23.02;53.90
14882;BME280;7533;51.278;12.588;2023-04-08T20:37:32;101098.56;;;23.10;53.85
14882;BME280;7533;51.278;12.588;2023-04-08T20:42:36;101104.81;;;23.11;53.56
14882;BME280;7533;51.278;12.588;2023-04-08T20:47:39;101094.59;;;23.16;53.36
14882;BME280;7533;51.278;12.588;2023-04-08T20:52:41;101097.50;;;22.99;53.86
14882;BME280;7533;51.278;12.588;2023-04-08T20:57:46;101096.63;;;23.12;53.54
14882;BME280;7533;51.278;12.588;2023-04-08T21:02:49;101095.47;;;23.02;53.98
14882;BME280;7533;51.278;12.588;2023-04-08T21:07:52;101101.63;;;23.04;53.96
14882;BME280;7533;51.278;12.588;2023-04-08T21:12:56;101091.25;;;22.54;55.88
14882;BME280;7533;51.278;12.588;2023-04-08T21:18:00;101092.34;;;22.80;55.40
14882;BME280;7533;51.278;12.588;2023-04-08T21:23:03;101099.69;;;23.06;54.88
14882;BME280;7533;51.278;12.588;2023-04-08T21:28:08;101105.50;;;22.56;55.79
14882;BME280;7533;51.278;12.588;2023-04-08T21:33:11;101099.66;;;22.63;55.84
14882;BME280;7533;51.278;12.588;2023-04-08T21:38:14;101092.72;;;22.59;56.09
14882;BME280;7533;51.278;12.588;2023-04-08T21:43:18;101101.97;;;22.84;55.92
14882;BME280;7533;51.278;12.588;2023-04-08T21:48:22;101092.53;;;23.34;54.93
14882;BME280;7533;51.278;12.588;2023-04-08T21:53:25;101093.72;;;23.30;55.18
14882;BME280;7533;51.278;12.588;2023-04-08T21:58:29;101100.25;;;23.40;55.13
14882;BME280;7533;51.278;12.588;2023-04-08T22:03:32;101093.97;;;23.39;55.14
14882;BME280;7533;51.278;12.588;2023-04-08T22:08:35;101099.78;;;23.47;55.05
14882;BME280;7533;51.278;12.588;2023-04-08T22:13:39;101094.66;;;23.43;55.13
14882;BME280;7533;51.278;12.588;2023-04-08T22:18:41;101096.97;;;23.49;55.19
14882;BME280;7533;51.278;12.588;2023-04-08T22:23:44;101094.94;;;23.53;55.34
14882;BME280;7533;51.278;12.588;2023-04-08T22:28:48;101091.16;;;23.55;55.27
14882;BME280;7533;51.278;12.588;2023-04-08T22:33:52;101093.84;;;23.55;55.36
14882;BME280;7533;51.278;12.588;2023-04-08T22:38:55;101097.41;;;23.56;55.36
14882;BME280;7533;51.278;12.588;2023-04-08T22:43:59;101098.28;;;23.56;55.44
14882;BME280;7533;51.278;12.588;2023-04-08T22:49:02;101105.84;;;23.65;55.42
14882;BME280;7533;51.278;12.588;2023-04-08T22:54:04;101106.22;;;23.59;55.47
14882;BME280;7533;51.278;12.588;2023-04-08T22:59:09;101118.75;;;23.60;55.60
14882;BME280;7533;51.278;12.588;2023-04-08T23:04:11;101116.16;;;23.59;55.69
14882;BME280;7533;51.278;12.588;2023-04-08T23:09:14;101118.00;;;23.58;55.74
14882;BME280;7533;51.278;12.588;2023-04-08T23:14:18;101115.94;;;23.62;55.74
14882;BME280;7533;51.278;12.588;2023-04-08T23:19:21;101119.47;;;23.64;55.81
14882;BME280;7533;51.278;12.588;2023-04-08T23:24:24;101114.31;;;23.59;55.83
14882;BME280;7533;51.278;12.588;2023-04-08T23:29:28;101116.66;;;23.65;55.86
14882;BME280;7533;51.278;12.588;2023-04-08T23:34:34;101103.41;;;23.61;55.98
14882;BME280;7533;51.278;12.588;2023-04-08T23:39:36;101108.66;;;23.64;56.03
14882;BME280;7533;51.278;12.588;2023-04-08T23:44:41;101103.41;;;23.61;56.00
14882;BME280;7533;51.278;12.588;2023-04-08T23:49:43;101108.91;;;23.59;56.19
14882;BME280;7533;51.278;12.588;2023-04-08T23:54:48;101109.88;;;23.58;56.10
14882;BME280;7533;51.278;12.588;2023-04-08T23:59:52;101108.66;;;23.64;56.12
